Time;durP1;ratioP1;P1;durP2;ratioP2;P2;SDS_P1;SDS_P2;PMS_P1;PMS_P2;Temp;Humidity;BMP_temperature;BMP_pressure;BME280_temperature;BME280_humidity;BME280_pressure;Samples;Min_cycle;Max_cycle;Signal;HPM_P1;HPM_P2
2021/05/08 00:02:10;;;;;;;2.58;1.15;;;;;;;23.96;41.99;99848.63;4473546;32;34994;-61
2021/05/08 00:04:38;;;;;;;5.40;1.50;;;;;;;23.97;41.98;99841.28;4470676;32;34591;-61
2021/05/08 00:07:05;;;;;;;5.12;1.55;;;;;;;23.95;42.05;99841.53;4468896;32;34098;-61
2021/05/08 00:09:32;;;;;;;6.55;2.05;;;;;;;23.95;42.02;99855.16;4471527;32;33776;-61
2021/05/08 00:11:59;;;;;;;7.72;1.40;;;;;;;23.94;42.04;99861.66;4480402;32;33900;-60
2021/05/08 00:14:26;;;;;;;6.93;1.30;;;;;;;23.95;42.06;99866.06;4475205;32;33918;-61
2021/05/08 00:16:54;;;;;;;4.97;1.60;;;;;;;23.95;42.09;99863.31;4480879;31;33065;-61
2021/05/08 00:19:22;;;;;;;3.45;1.23;;;;;;;23.96;42.08;99869.59;4471129;32;34588;-61
2021/05/08 00:21:49;;;;;;;5.35;1.17;;;;;;;23.94;42.07;99864.41;4484449;32;33971;-61
2021/05/08 00:24:16;;;;;;;5.20;1.60;;;;;;;23.95;42.12;99871.50;4484271;32;34032;-61
2021/05/08 00:26:43;;;;;;;4.95;1.20;;;;;;;23.93;42.12;99866.28;4484364;32;33512;-61
2021/05/08 00:29:11;;;;;;;5.37;1.40;;;;;;;23.95;42.10;99870.69;4480316;32;33886;-61
2021/05/08 00:31:38;;;;;;;6.32;1.17;;;;;;;23.93;42.09;99871.75;4468756;32;33809;-60
2021/05/08 00:34:06;;;;;;;6.55;1.27;;;;;;;23.93;42.11;99876.38;4468575;32;34521;-61
2021/05/08 00:36:34;;;;;;;3.30;1.08;;;;;;;23.93;42.08;99884.53;4468766;32;33392;-61
2021/05/08 00:39:03;;;;;;;4.68;1.27;;;;;;;23.92;42.09;99877.41;4468706;32;33850;-61
2021/05/08 00:41:31;;;;;;;5.12;1.60;;;;;;;23.91;42.11;99886.63;4468929;32;33844;-61
2021/05/08 00:43:58;;;;;;;5.50;1.33;;;;;;;23.92;42.05;99888.31;4468961;32;34609;-61
2021/05/08 00:46:26;;;;;;;6.07;1.40;;;;;;;23.90;42.10;99894.00;4468752;32;33409;-61
2021/05/08 00:48:54;;;;;;;3.00;1.12;;;;;;;23.90;42.10;99895.88;4468479;32;33735;-61
2021/05/08 00:51:22;;;;;;;5.03;2.08;;;;;;;23.89;42.11;99903.22;4468621;32;33900;-61
2021/05/08 00:53:49;;;;;;;5.60;1.35;;;;;;;23.90;42.07;99906.78;4468582;32;34408;-60
2021/05/08 00:56:16;;;;;;;6.28;1.17;;;;;;;23.90;42.17;99901.34;4467978;32;33041;-61
2021/05/08 00:58:44;;;;;;;3.28;1.12;;;;;;;23.90;42.19;99906.78;4468274;32;33573;-60
2021/05/08 01:01:11;;;;;;;4.00;1.10;;;;;;;23.89;42.15;99918.75;4454683;32;35407;-61
2021/05/08 01:03:42;;;;;;;5.03;1.00;;;;;;;23.88;42.14;99917.91;4468651;32;33845;-61
2021/05/08 01:06:09;;;;;;;3.83;1.20;;;;;;;23.88;42.18;99926.09;4474150;32;33726;-61
2021/05/08 01:08:37;;;;;;;3.72;1.10;;;;;;;23.88;42.15;99923.38;4484030;32;34485;-62
2021/05/08 01:11:04;;;;;;;7.03;1.10;;;;;;;23.87;42.08;99921.69;4469045;32;33782;-62
2021/05/08 01:13:32;;;;;;;4.18;1.52;;;;;;;23.87;42.17;99926.31;4466936;32;33982;-62
2021/05/08 01:15:59;;;;;;;2.90;0.90;;;;;;;23.88;42.19;99936.16;4467357;32;33445;-62
2021/05/08 01:18:28;;;;;;;4.25;1.30;;;;;;;23.87;42.16;99938.03;4468699;32;33752;-62
2021/05/08 01:20:55;;;;;;;3.10;1.08;;;;;;;23.87;42.16;99939.94;4468539;32;34477;-62
2021/05/08 01:23:22;;;;;;;5.10;1.25;;;;;;;23.87;42.14;99948.94;4467230;32;34490;-62
2021/05/08 01:25:50;;;;;;;3.72;1.08;;;;;;;23.87;42.26;99945.38;4468229;32;34472;-61
2021/05/08 01:28:17;;;;;;;5.43;1.55;;;;;;;23.86;42.22;99941.81;4468320;32;33912;-61
2021/05/08 01:30:45;;;;;;;3.62;1.20;;;;;;;23.86;42.16;99938.28;4468315;32;35434;-62
2021/05/08 01:33:12;;;;;;;4.75;1.10;;;;;;;23.86;42.22;99938.28;4468157;32;33846;-61
2021/05/08 01:35:39;;;;;;;4.32;1.10;;;;;;;23.85;42.19;99940.16;4468188;32;33016;-62
2021/05/08 01:38:06;;;;;;;3.70;1.10;;;;;;;23.85;42.24;99942.06;4466973;32;34618;-62
2021/05/08 01:40:36;;;;;;;5.82;1.40;;;;;;;23.84;42.27;99943.94;4468233;32;33797;-61
2021/05/08 01:43:04;;;;;;;2.67;1.10;;;;;;;23.82;42.32;99943.31;4468194;32;34547;-62
2021/05/08 01:45:31;;;;;;;3.33;1.20;;;;;;;23.83;42.20;99947.75;4468442;32;34065;-62
2021/05/08 01:47:59;;;;;;;4.85;1.20;;;;;;;23.83;42.24;99955.09;4468444;32;34817;-62
2021/05/08 01:50:27;;;;;;;3.83;1.30;;;;;;;23.81;42.19;99962.63;4468261;32;34852;-62
2021/05/08 01:52:55;;;;;;;4.62;1.30;;;;;;;23.81;42.28;99959.91;4468171;32;33831;-62
2021/05/08 01:55:24;;;;;;;4.90;1.20;;;;;;;23.82;42.16;99958.84;4468490;32;33027;-61
2021/05/08 01:57:56;;;;;;;3.12;1.10;;;;;;;23.80;42.23;99955.53;4468266;32;35343;-62
2021/05/08 02:00:30;;;;;;;3.65;0.98;;;;;;;23.79;42.34;99960.16;4468482;32;32659;-62
2021/05/08 02:02:58;;;;;;;2.97;1.17;;;;;;;23.79;42.34;99956.59;4477424;32;33976;-62
2021/05/08 02:05:27;;;;;;;2.55;1.05;;;;;;;23.79;42.32;99959.31;4483853;32;33384;-61
2021/05/08 02:07:55;;;;;;;4.80;1.40;;;;;;;23.78;42.31;99972.13;4483717;32;33526;-62
2021/05/08 02:10:22;;;;;;;3.62;1.10;;;;;;;23.79;42.32;99975.66;4483480;32;33826;-61
2021/05/08 02:12:50;;;;;;;3.03;1.02;;;;;;;23.78;42.30;99977.56;4483999;32;34690;-62
2021/05/08 02:15:18;;;;;;;3.72;1.05;;;;;;;23.78;42.32;99980.28;4483743;32;33255;-62
2021/05/08 02:17:46;;;;;;;2.72;0.95;;;;;;;23.79;42.35;99978.37;4483366;32;34622;-62
2021/05/08 02:20:21;;;;;;;5.82;1.02;;;;;;;23.78;42.32;99985.72;4483753;32;33887;-62
2021/05/08 02:22:50;;;;;;;3.47;1.20;;;;;;;23.79;42.24;99975.66;4483590;32;33735;-62
2021/05/08 02:25:17;;;;;;;4.28;1.10;;;;;;;23.77;42.30;99977.75;4483195;32;33256;-62
2021/05/08 02:27:45;;;;;;;2.55;1.10;;;;;;;23.75;42.34;99972.56;4482376;32;34454;-62
2021/05/08 02:30:14;;;;;;;3.55;1.10;;;;;;;23.75;42.33;99978.00;4483675;32;33813;-62
2021/05/08 02:32:42;;;;;;;4.40;1.20;;;;;;;23.76;42.27;99976.94;4483410;32;34457;-62
2021/05/08 02:35:11;;;;;;;2.87;1.23;;;;;;;23.76;42.39;99967.94;4483539;32;34385;-61
2021/05/08 02:37:39;;;;;;;2.47;1.08;;;;;;;23.76;42.36;99971.47;4483339;32;33895;-62
2021/05/08 02:40:07;;;;;;;5.37;1.10;;;;;;;23.76;42.33;99973.38;4483510;32;33551;-62
2021/05/08 02:42:35;;;;;;;3.35;0.90;;;;;;;23.74;42.33;99967.34;4483456;32;34333;-61
2021/05/08 02:45:04;;;;;;;2.42;1.25;;;;;;;23.76;42.32;99963.31;4483386;32;33444;-62
2021/05/08 02:47:31;;;;;;;3.83;1.05;;;;;;;23.74;42.35;99964.63;4483310;32;34767;-62
2021/05/08 02:49:59;;;;;;;3.05;1.10;;;;;;;23.75;42.26;99963.53;4483471;32;33814;-62
2021/05/08 02:52:26;;;;;;;3.85;1.08;;;;;;;23.74;42.27;99970.06;4482916;32;34621;-62
2021/05/08 02:54:54;;;;;;;2.80;1.00;;;;;;;23.73;42.38;99968.38;4483077;32;34403;-62
2021/05/08 02:57:22;;;;;;;4.95;1.20;;;;;;;23.74;42.27;99964.63;4483075;32;34540;-62
2021/05/08 02:59:49;;;;;;;3.70;1.00;;;;;;;23.73;42.26;99973.81;4483024;32;33838;-62
2021/05/08 03:02:16;;;;;;;5.75;1.50;;;;;;;23.74;42.38;99970.06;4477803;32;34798;-62
2021/05/08 03:04:43;;;;;;;3.47;1.00;;;;;;;23.73;42.43;99979.28;4467606;32;33274;-62
2021/05/08 03:07:10;;;;;;;7.93;1.33;;;;;;;23.72;42.38;99981.16;4467185;32;33871;-62
2021/05/08 03:09:38;;;;;;;2.75;0.90;;;;;;;23.73;42.43;99993.72;4467156;32;33783;-62
2021/05/08 03:12:06;;;;;;;2.55;0.90;;;;;;;23.72;42.39;99989.34;4467456;32;34726;-62
2021/05/08 03:14:33;;;;;;;4.62;1.05;;;;;;;23.73;42.37;99999.16;4467181;32;33366;-62
2021/05/08 03:17:05;;;;;;;3.58;0.88;;;;;;;23.72;42.38;99994.78;4466859;32;33602;-61
2021/05/08 03:19:35;;;;;;;3.92;1.50;;;;;;;23.71;42.40;99990.41;4467433;32;33895;-62
2021/05/08 03:22:03;;;;;;;2.60;1.00;;;;;;;23.72;42.37;99991.22;4469125;32;33790;-62
2021/05/08 03:24:31;;;;;;;2.17;1.00;;;;;;;23.72;42.30;99996.69;4469518;32;33464;-61
2021/05/08 03:26:58;;;;;;;2.85;1.05;;;;;;;23.71;42.32;100003.19;4469279;32;33776;-62
2021/05/08 03:29:26;;;;;;;3.55;1.10;;;;;;;23.69;42.33;100008.88;4469379;32;34073;-62
2021/05/08 03:31:53;;;;;;;2.00;1.00;;;;;;;23.70;42.39;100012.44;4469436;32;33849;-62
2021/05/08 03:34:21;;;;;;;3.25;1.17;;;;;;;23.70;42.33;100023.31;4468087;32;34388;-62
2021/05/08 03:36:48;;;;;;;6.53;1.15;;;;;;;23.68;42.43;100012.63;4469103;32;33847;-62
2021/05/08 03:39:15;;;;;;;6.55;1.00;;;;;;;23.69;42.55;100027.94;4469222;32;33821;-62
2021/05/08 03:41:43;;;;;;;5.32;1.27;;;;;;;23.68;42.45;100024.34;4469105;32;33858;-62
2021/05/08 03:44:10;;;;;;;4.70;1.10;;;;;;;23.67;42.43;100033.59;4468943;32;33590;-62
2021/05/08 03:46:38;;;;;;;6.43;1.00;;;;;;;23.68;42.43;100026.25;4468891;32;33891;-62
2021/05/08 03:49:06;;;;;;;3.05;1.00;;;;;;;23.70;42.42;100031.50;4469127;32;34494;-62
2021/05/08 03:51:33;;;;;;;6.25;1.40;;;;;;;23.69;42.41;100036.13;4468935;32;33524;-62
2021/05/08 03:54:00;;;;;;;2.37;1.00;;;;;;;23.68;42.45;100035.25;4469045;32;33007;-62
2021/05/08 03:56:27;;;;;;;3.35;1.42;;;;;;;23.68;42.55;100037.16;4469060;32;33630;-61
2021/05/08 03:58:54;;;;;;;3.30;1.40;;;;;;;23.68;42.52;100037.97;4468893;32;34700;-62
2021/05/08 04:01:21;;;;;;;1.80;1.00;;;;;;;23.67;42.55;100044.50;4469112;32;33807;-61
2021/05/08 04:03:49;;;;;;;2.87;1.00;;;;;;;23.67;42.50;100052.66;4483922;32;33199;-62
2021/05/08 04:06:16;;;;;;;3.92;1.40;;;;;;;23.66;42.50;100051.00;4484429;32;34897;-61
2021/05/08 04:08:43;;;;;;;3.80;0.90;;;;;;;23.67;42.51;100057.28;4484684;32;33828;-62
2021/05/08 04:11:11;;;;;;;4.97;1.25;;;;;;;23.66;42.47;100059.19;4484580;32;34739;-62
2021/05/08 04:13:38;;;;;;;1.77;0.80;;;;;;;23.66;42.46;100067.34;4484440;32;33420;-62
2021/05/08 04:16:05;;;;;;;2.05;0.90;;;;;;;23.66;42.46;100070.06;4484570;32;33948;-62
2021/05/08 04:18:32;;;;;;;5.60;1.05;;;;;;;23.65;42.47;100068.41;4479527;32;33878;-61
2021/05/08 04:20:59;;;;;;;3.05;1.00;;;;;;;23.65;42.53;100073.84;4473386;32;33491;-61
2021/05/08 04:23:26;;;;;;;1.92;0.95;;;;;;;23.64;42.50;100072.19;4484547;32;33415;-61
2021/05/08 04:25:54;;;;;;;3.28;0.90;;;;;;;23.64;42.47;100088.53;4478377;32;34959;-61
2021/05/08 04:28:21;;;;;;;2.15;0.80;;;;;;;23.64;42.50;100091.25;4468616;32;33650;-61
2021/05/08 04:30:48;;;;;;;2.95;0.90;;;;;;;23.64;42.49;100084.94;4468557;32;33965;-60
2021/05/08 04:33:18;;;;;;;;;;;;;;;23.63;42.48;100091.44;4468888;32;33252;-61
2021/05/08 04:35:45;;;;;;;7.05;1.08;;;;;;;23.74;42.26;100089.94;4468629;32;33738;-61
2021/05/08 04:38:12;;;;;;;4.10;1.23;;;;;;;23.66;42.42;100097.31;4475798;32;33625;-61
2021/05/08 04:40:41;;;;;;;2.50;0.85;;;;;;;23.64;42.55;100093.12;4484281;32;33462;-61
2021/05/08 04:43:08;;;;;;;3.12;1.10;;;;;;;23.62;42.62;100098.78;4484263;32;33300;-61
2021/05/08 04:45:36;;;;;;;8.35;1.40;;;;;;;23.62;42.61;100104.22;4484378;32;33904;-61
2021/05/08 04:48:04;;;;;;;5.35;1.00;;;;;;;23.63;42.63;100102.31;4483548;32;33999;-62
2021/05/08 04:50:31;;;;;;;3.30;0.93;;;;;;;23.63;42.71;100102.31;4469034;32;33784;-62
2021/05/08 04:52:58;;;;;;;5.53;0.98;;;;;;;23.62;42.69;100108.84;4473159;32;34036;-62
2021/05/08 04:55:25;;;;;;;5.18;1.30;;;;;;;23.63;42.63;100115.94;4484260;32;33793;-62
2021/05/08 04:57:52;;;;;;;5.37;1.30;;;;;;;23.63;42.64;100110.50;4484252;32;33849;-61
2021/05/08 05:00:19;;;;;;;3.62;1.02;;;;;;;23.63;42.61;100118.66;4484253;32;33648;-62
2021/05/08 05:02:47;;;;;;;4.95;1.05;;;;;;;23.61;42.67;100116.19;4481121;32;34347;-62
2021/05/08 05:05:19;;;;;;;3.28;1.10;;;;;;;23.62;42.67;100126.00;4473042;32;33911;-61
2021/05/08 05:07:47;;;;;;;2.15;1.02;;;;;;;23.62;42.59;100120.56;4478155;32;33905;-60
2021/05/08 05:10:14;;;;;;;1.87;0.80;;;;;;;23.63;42.61;100124.13;4484198;32;33834;-61
2021/05/08 05:12:43;;;;;;;6.07;1.23;;;;;;;23.61;42.67;100127.06;4474829;32;34499;-61
2021/05/08 05:15:11;;;;;;;5.20;1.40;;;;;;;23.63;42.64;100126.84;4468474;32;33929;-61
2021/05/08 05:17:38;;;;;;;7.68;1.20;;;;;;;23.62;42.52;100134.19;4468307;32;33827;-61
2021/05/08 05:20:08;;;;;;;3.83;1.77;;;;;;;23.62;42.65;100136.09;4470238;32;34204;-61
2021/05/08 05:22:35;;;;;;;4.55;1.08;;;;;;;23.63;42.66;100135.03;4484088;32;33311;-61
2021/05/08 05:25:03;;;;;;;3.28;1.00;;;;;;;23.62;42.62;100139.63;4483941;32;34620;-60
2021/05/08 05:27:31;;;;;;;5.60;1.10;;;;;;;23.62;42.57;100144.25;4484005;32;33957;-61
2021/05/08 05:29:58;;;;;;;3.87;0.88;;;;;;;23.63;42.56;100148.63;4484136;32;33460;-61
2021/05/08 05:32:25;;;;;;;3.87;1.20;;;;;;;23.62;42.58;100142.34;4481143;32;88315;-61
2021/05/08 05:34:53;;;;;;;3.62;1.02;;;;;;;23.62;42.52;100155.97;4483893;32;34644;-60
2021/05/08 05:37:20;;;;;;;4.78;1.20;;;;;;;23.62;42.60;100158.72;4484027;32;33819;-61
2021/05/08 05:39:48;;;;;;;2.12;0.90;;;;;;;23.61;42.52;100162.50;4483865;32;33745;-61
2021/05/08 05:42:15;;;;;;;2.25;0.88;;;;;;;23.62;42.56;100166.88;4483586;32;33303;-61
2021/05/08 05:44:42;;;;;;;3.42;1.10;;;;;;;23.62;42.60;100164.16;4483706;32;33827;-61
2021/05/08 05:47:20;;;;;;;3.35;0.90;;;;;;;23.63;42.70;100175.87;4483665;32;33926;-61
2021/05/08 05:49:50;;;;;;;3.23;1.20;;;;;;;23.63;42.62;100175.87;4483878;32;35146;-61
2021/05/08 05:52:18;;;;;;;4.60;1.08;;;;;;;23.64;42.50;100181.16;4483883;32;33416;-61
2021/05/08 05:54:48;;;;;;;3.62;1.08;;;;;;;23.63;42.59;100173.16;4483673;32;34496;-61
2021/05/08 05:57:15;;;;;;;7.85;1.25;;;;;;;23.63;42.57;100182.16;4476689;32;33699;-61
2021/05/08 05:59:42;;;;;;;2.80;0.77;;;;;;;23.62;42.51;100180.50;4468091;32;33775;-61
2021/05/08 06:02:10;;;;;;;7.15;2.30;;;;;;;23.61;42.50;100183.44;4467840;32;34447;-62
2021/05/08 06:04:37;;;;;;;7.15;3.60;;;;;;;23.67;39.95;100188.88;4468165;32;35232;-62
2021/05/08 06:07:04;;;;;;;15.10;4.25;;;;;;;23.65;34.81;100184.72;4468056;32;33955;-61
2021/05/08 06:09:32;;;;;;;10.55;2.92;;;;;;;23.52;36.35;100185.59;4468003;32;33932;-61
2021/05/08 06:11:59;;;;;;;8.15;2.25;;;;;;;23.41;37.39;100181.66;4466746;32;33526;-60
2021/05/08 06:14:27;;;;;;;9.35;2.83;;;;;;;23.38;38.20;100192.16;4467902;32;34565;-61
2021/05/08 06:16:57;;;;;;;12.55;2.60;;;;;;;23.36;38.59;100194.25;4467689;32;33922;-61
2021/05/08 06:19:25;;;;;;;13.30;3.28;;;;;;;23.35;38.81;100190.69;4467782;32;33862;-62
2021/05/08 06:21:52;;;;;;;13.38;2.95;;;;;;;23.34;38.90;100191.75;4467741;32;33555;-61
2021/05/08 06:24:19;;;;;;;11.95;2.70;;;;;;;23.34;39.04;100199.09;4467750;32;34770;-62
2021/05/08 06:26:46;;;;;;;9.90;2.62;;;;;;;23.33;39.14;100197.41;4467673;32;33835;-61
2021/05/08 06:29:13;;;;;;;10.43;3.03;;;;;;;23.34;39.15;100193.63;4467764;32;34614;-61
2021/05/08 06:31:43;;;;;;;8.13;2.37;;;;;;;23.33;39.18;100192.81;4467734;32;35451;-61
2021/05/08 06:34:10;;;;;;;8.98;2.65;;;;;;;23.35;39.21;100195.31;4467519;32;33509;-62
2021/05/08 06:36:37;;;;;;;8.85;2.22;;;;;;;23.34;39.29;100197.19;4466495;32;34676;-61
2021/05/08 06:39:04;;;;;;;7.60;2.05;;;;;;;23.33;39.31;100203.69;4467562;32;33794;-61
2021/05/08 06:41:32;;;;;;;10.88;2.10;;;;;;;23.34;39.33;100190.91;4467630;32;33500;-62
2021/05/08 06:43:59;;;;;;;10.05;2.17;;;;;;;23.34;39.40;100196.34;4467304;32;33965;-61
2021/05/08 06:46:27;;;;;;;6.53;1.92;;;;;;;23.35;39.39;100189.84;4475544;32;33702;-61
2021/05/08 06:48:55;;;;;;;9.57;2.05;;;;;;;23.35;39.36;100195.31;4481756;32;33909;-62
2021/05/08 06:51:22;;;;;;;7.07;2.12;;;;;;;23.35;39.48;100190.69;4480484;32;33389;-62
2021/05/08 06:53:49;;;;;;;8.85;1.92;;;;;;;23.36;39.51;100196.97;4482706;32;33871;-62
2021/05/08 06:56:17;;;;;;;4.53;1.85;;;;;;;23.37;39.54;100196.78;4484741;32;34671;-63
2021/05/08 06:58:44;;;;;;;9.02;2.30;;;;;;;23.37;39.58;100198.66;4471490;32;34032;-62
2021/05/08 07:01:11;;;;;;;6.78;1.92;;;;;;;23.38;39.59;100194.88;4480383;32;33452;-63
2021/05/08 07:03:38;;;;;;;6.70;2.03;;;;;;;23.37;39.63;100191.31;4483453;32;33968;-63
2021/05/08 07:06:06;;;;;;;9.20;2.28;;;;;;;23.38;39.69;100189.44;4469236;32;33901;-62
2021/05/08 07:08:33;;;;;;;5.35;1.62;;;;;;;23.39;39.77;100193.81;4469201;32;33861;-62
2021/05/08 07:11:00;;;;;;;7.30;1.62;;;;;;;23.39;39.70;100191.94;4469360;32;33269;-61
2021/05/08 07:13:27;;;;;;;8.13;1.80;;;;;;;23.41;39.87;100203.47;4469242;32;35000;-63
2021/05/08 07:15:54;;;;;;;8.65;2.12;;;;;;;23.45;40.01;100194.84;4469148;32;33845;-62
2021/05/08 07:18:22;;;;;;;10.13;1.98;;;;;;;23.46;40.08;100205.53;4469541;32;33556;-63
2021/05/08 07:20:50;;;;;;;10.43;1.80;;;;;;;23.59;40.12;100201.88;4468986;32;33425;-63
2021/05/08 07:23:18;;;;;;;6.97;2.12;;;;;;;23.77;40.06;100202.03;4468441;32;35357;-63
2021/05/08 07:25:45;;;;;;;10.80;1.87;;;;;;;23.95;39.90;100208.62;4468033;32;33862;-62
2021/05/08 07:28:12;;;;;;;9.18;1.90;;;;;;;24.15;39.67;100209.31;4469086;32;33713;-63
2021/05/08 07:30:40;;;;;;;6.93;1.85;;;;;;;24.34;39.46;100202.87;4469145;32;34117;-63
2021/05/08 07:33:09;;;;;;;10.27;1.75;;;;;;;24.52;39.19;100210.28;4469054;32;33868;-63
2021/05/08 07:35:36;;;;;;;9.48;1.80;;;;;;;24.69;38.86;100208.66;4467802;32;33851;-66
2021/05/08 07:38:03;;;;;;;14.18;2.20;;;;;;;24.86;38.49;100213.53;4469215;32;33774;-64
2021/05/08 07:40:31;;;;;;;18.55;2.53;;;;;;;25.00;38.30;100215.06;4472809;32;33955;-62
2021/05/08 07:42:59;;;;;;;20.40;2.83;;;;;;;25.12;38.08;100223.34;4484685;32;33789;-63
2021/05/08 07:45:29;;;;;;;14.48;1.75;;;;;;;25.23;37.96;100216.28;4484790;32;33849;-62
2021/05/08 07:47:57;;;;;;;15.80;2.05;;;;;;;25.31;37.86;100213.25;4484565;32;33982;-63
2021/05/08 07:50:25;;;;;;;13.10;2.30;;;;;;;25.38;37.77;100217.59;4484002;32;33280;-63
2021/05/08 07:52:52;;;;;;;14.60;2.17;;;;;;;25.43;37.74;100216.91;4484772;32;33551;-63
2021/05/08 07:55:20;;;;;;;9.30;2.15;;;;;;;25.48;37.71;100214.31;4484779;32;33692;-62
2021/05/08 07:57:47;;;;;;;15.90;2.42;;;;;;;25.53;37.67;100224.53;4484479;32;33911;-62
2021/05/08 08:00:15;;;;;;;9.73;2.15;;;;;;;25.52;37.68;100229.19;4484918;32;33393;-62
2021/05/08 08:02:42;;;;;;;11.40;2.42;;;;;;;25.54;37.68;100228.94;4485016;32;34668;-63
2021/05/08 08:05:10;;;;;;;9.32;2.03;;;;;;;25.54;37.68;100227.03;4484385;32;33953;-62
2021/05/08 08:07:37;;;;;;;12.02;2.33;;;;;;;25.53;37.70;100230.84;4484363;32;33845;-61
2021/05/08 08:10:05;;;;;;;10.55;2.40;;;;;;;25.53;37.73;100235.47;4484619;32;33290;-63
2021/05/08 08:12:32;;;;;;;7.18;1.70;;;;;;;25.50;37.78;100244.94;4484284;32;33758;-63
2021/05/08 08:14:59;;;;;;;9.27;1.80;;;;;;;25.49;37.81;100243.28;4484617;32;33849;-64
2021/05/08 08:17:28;;;;;;;8.25;1.90;;;;;;;25.47;37.85;100245.44;4484745;32;34943;-63
2021/05/08 08:19:55;;;;;;;9.98;1.85;;;;;;;25.44;37.90;100246.72;4484466;32;33364;-62
2021/05/08 08:22:22;;;;;;;9.52;2.08;;;;;;;25.42;37.97;100250.75;4484513;32;33805;-64
2021/05/08 08:24:50;;;;;;;8.32;1.90;;;;;;;25.38;38.00;100247.63;4484439;32;33716;-63
2021/05/08 08:27:17;;;;;;;10.32;1.80;;;;;;;25.35;38.07;100244.50;4484348;32;33777;-63
2021/05/08 08:29:44;;;;;;;6.35;1.77;;;;;;;25.32;38.16;100253.16;4484586;32;33296;-62
2021/05/08 08:32:12;;;;;;;7.00;1.80;;;;;;;25.30;38.22;100247.09;4484491;32;33660;-63
2021/05/08 08:34:39;;;;;;;9.75;1.77;;;;;;;25.26;38.25;100257.63;4484012;32;34038;-63
2021/05/08 08:37:06;;;;;;;11.63;2.28;;;;;;;25.23;38.32;100258.13;4484312;32;33966;-63
2021/05/08 08:39:34;;;;;;;16.90;2.70;;;;;;;25.21;38.26;100256.66;4478421;32;33594;-63
2021/05/08 08:42:01;;;;;;;8.70;1.90;;;;;;;25.15;37.97;100264.69;4482627;32;34925;-63
2021/05/08 08:44:28;;;;;;;8.00;2.58;;;;;;;25.11;37.94;100262.66;4470003;32;33834;-63
2021/05/08 08:46:56;;;;;;;9.05;1.77;;;;;;;25.07;37.04;100269.59;4481955;32;33615;-63
2021/05/08 08:49:23;;;;;;;10.10;2.15;;;;;;;25.05;37.75;100258.91;4482766;32;33612;-63
2021/05/08 08:51:50;;;;;;;9.25;1.92;;;;;;;25.01;37.29;100260.41;4484077;32;33812;-62
2021/05/08 08:54:17;;;;;;;13.98;2.40;;;;;;;24.96;36.64;100263.00;4484172;32;34793;-62
2021/05/08 08:56:46;;;;;;;8.68;2.50;;;;;;;24.93;37.10;100258.81;4483990;32;34575;-63
2021/05/08 08:59:28;;;;;;;7.45;2.40;;;;;;;24.86;35.76;100255.31;4469792;32;33310;-64
2021/05/08 09:01:55;;;;;;;9.90;2.25;;;;;;;24.80;35.01;100249.91;4476848;32;33797;-63
2021/05/08 09:04:23;;;;;;;8.98;2.50;;;;;;;24.77;35.21;100261.28;4468221;32;34808;-63
2021/05/08 09:06:50;;;;;;;8.55;2.08;;;;;;;24.73;35.52;100257.34;4476978;32;33927;-62
2021/05/08 09:09:17;;;;;;;7.15;2.08;;;;;;;24.72;35.92;100255.69;4481669;32;33176;-64
2021/05/08 09:11:51;;;;;;;8.77;2.08;;;;;;;24.66;35.33;100269.12;4468382;32;33796;-64
2021/05/08 09:14:28;;;;;;;5.15;2.10;;;;;;;24.66;35.55;100271.03;4468316;32;34918;-64
2021/05/08 09:17:13;;;;;;;7.35;2.55;;;;;;;24.63;35.56;100266.03;4467737;32;33653;-64
2021/05/08 09:19:45;;;;;;;4.80;1.98;;;;;;;24.62;35.56;100269.78;4481412;32;34331;-64
2021/05/08 09:22:34;;;;;;;5.72;2.28;;;;;;;24.58;35.98;100258.53;4468365;32;33809;-64
2021/05/08 09:25:01;;;;;;;6.10;2.33;;;;;;;24.59;36.01;100262.91;4468007;32;33605;-64
2021/05/08 09:27:49;;;;;;;4.62;2.17;;;;;;;24.48;33.67;100265.50;4468118;32;34571;-62
2021/05/08 09:30:26;;;;;;;7.45;1.80;;;;;;;24.51;34.80;100263.19;4468175;32;33477;-64
2021/05/08 09:32:53;;;;;;;5.78;2.10;;;;;;;24.48;35.00;100255.47;4468181;32;33908;-64
2021/05/08 09:35:21;;;;;;;4.55;1.90;;;;;;;24.41;34.86;100260.94;4479750;32;34143;-64
2021/05/08 09:37:50;;;;;;;4.60;1.75;;;;;;;24.41;34.76;100258.22;4483671;32;33928;-60
2021/05/08 09:40:22;;;;;;;7.07;2.20;;;;;;;24.37;34.38;100251.53;4483696;32;33380;-63
2021/05/08 09:42:54;;;;;;;5.35;1.98;;;;;;;24.36;34.25;100262.66;4483775;32;33965;-63
2021/05/08 09:45:27;;;;;;;4.55;1.92;;;;;;;24.34;34.35;100260.16;4483805;32;33822;-63
2021/05/08 09:47:55;;;;;;;5.22;1.80;;;;;;;24.29;33.00;100259.94;4482297;32;34320;-64
2021/05/08 09:50:23;;;;;;;4.50;1.73;;;;;;;24.27;33.60;100259.34;4483543;32;32996;-64
2021/05/08 09:52:55;;;;;;;7.30;1.65;;;;;;;24.26;33.48;100254.13;4483439;32;33782;-63
2021/05/08 09:55:23;;;;;;;6.30;2.45;;;;;;;24.22;33.29;100251.00;4483648;32;35252;-62
2021/05/08 09:58:06;;;;;;;5.18;1.77;;;;;;;24.21;32.63;100256.69;4483513;32;33774;-64
2021/05/08 10:00:40;;;;;;;4.68;2.17;;;;;;;24.20;33.63;100250.37;4483541;32;33684;-64
2021/05/08 10:03:10;;;;;;;3.95;1.50;;;;;;;24.16;32.75;100254.63;4483447;32;33550;-64
2021/05/08 10:05:38;;;;;;;4.22;1.75;;;;;;;24.14;33.96;100248.53;4483596;32;33886;-62
2021/05/08 10:08:05;;;;;;;4.75;2.00;;;;;;;24.10;32.92;100247.31;4483342;32;34360;-63
2021/05/08 10:10:33;;;;;;;3.65;1.77;;;;;;;24.13;33.73;100244.16;4482748;32;33352;-61
2021/05/08 10:13:05;;;;;;;5.55;1.30;;;;;;;24.07;32.52;100245.88;4467678;32;34110;-63
2021/05/08 10:15:33;;;;;;;2.65;1.40;;;;;;;24.06;33.00;100240.63;4467558;32;33895;-61
2021/05/08 10:18:04;;;;;;;3.40;1.55;;;;;;;24.05;33.32;100239.78;4483231;32;33971;-62
2021/05/08 10:20:32;;;;;;;3.22;1.52;;;;;;;24.04;32.45;100240.84;4483702;32;33662;-62
2021/05/08 10:23:04;;;;;;;2.83;1.40;;;;;;;24.00;31.78;100233.31;4481767;32;35403;-63
2021/05/08 10:25:31;;;;;;;4.40;1.65;;;;;;;24.00;32.56;100239.59;4482237;32;34097;-63
2021/05/08 10:27:58;;;;;;;4.10;1.55;;;;;;;24.00;33.24;100238.78;4483266;32;33486;-64
2021/05/08 10:30:35;;;;;;;6.53;1.65;;;;;;;23.97;33.03;100231.91;4487600;32;33225;-62
2021/05/08 10:33:29;;;;;;;5.78;1.50;;;;;;;23.99;33.72;100223.50;4488262;32;33893;-63
2021/05/08 10:35:57;;;;;;;4.07;1.55;;;;;;;24.02;33.71;100234.78;4487433;32;33802;-63
2021/05/08 10:38:30;;;;;;;2.72;1.30;;;;;;;23.98;32.80;100222.66;4488406;32;35001;-63
2021/05/08 10:41:05;;;;;;;4.85;1.65;;;;;;;23.95;32.37;100219.53;4486703;32;34134;-63
2021/05/08 10:43:39;;;;;;;6.35;1.80;;;;;;;23.95;32.71;100222.25;4487169;32;33636;-63
2021/05/08 10:46:06;;;;;;;6.30;1.65;;;;;;;23.91;32.34;100213.66;4488357;32;33829;-64
2021/05/08 10:48:33;;;;;;;6.50;1.65;;;;;;;23.86;32.01;100208.03;4488506;32;33759;-63
2021/05/08 10:51:01;;;;;;;4.78;1.30;;;;;;;23.89;33.13;100213.91;4488492;32;34148;-63
2021/05/08 10:53:35;;;;;;;6.82;1.67;;;;;;;23.88;32.78;100211.41;4488015;32;33866;-63
2021/05/08 10:56:02;;;;;;;2.92;1.27;;;;;;;23.88;32.22;100216.84;4488355;32;33803;-63
2021/05/08 10:58:34;;;;;;;4.85;1.65;;;;;;;23.84;31.79;100216.44;4487097;32;33951;-63
2021/05/08 11:01:08;;;;;;;6.07;1.30;;;;;;;23.83;32.54;100208.50;4488045;32;33322;-63
2021/05/08 11:03:41;;;;;;;2.75;1.23;;;;;;;23.81;32.74;100210.59;4488275;32;34567;-64
2021/05/08 11:06:10;;;;;;;4.97;1.58;;;;;;;23.82;32.81;100212.25;4488110;32;34661;-64
2021/05/08 11:08:38;;;;;;;4.75;1.40;;;;;;;23.79;32.25;100220.91;4487113;32;34084;-63
2021/05/08 11:11:16;;;;;;;4.30;1.48;;;;;;;23.78;31.94;100209.16;4488111;32;33540;-64
2021/05/08 11:13:43;;;;;;;5.68;1.80;;;;;;;23.75;31.76;100214.22;4487959;32;33639;-63
2021/05/08 11:16:11;;;;;;;5.07;1.25;;;;;;;23.70;31.99;100198.50;4487996;31;34630;-64
2021/05/08 11:18:42;;;;;;;5.18;1.65;;;;;;;23.65;32.33;100204.62;4488110;32;35098;-64
2021/05/08 11:21:10;;;;;;;7.93;1.70;;;;;;;23.65;32.47;100204.62;4488231;32;34118;-63
2021/05/08 11:23:47;;;;;;;5.18;1.62;;;;;;;23.65;32.77;100207.34;4487902;32;33688;-64
2021/05/08 11:26:20;;;;;;;2.50;1.37;;;;;;;23.63;32.96;100206.69;4487120;32;33819;-63
2021/05/08 11:28:53;;;;;;;4.80;1.50;;;;;;;23.66;32.26;100213.63;4487538;32;33358;-64
2021/05/08 11:31:42;;;;;;;2.80;1.27;;;;;;;23.61;31.65;100203.34;4487047;32;33092;-64
2021/05/08 11:34:10;;;;;;;5.93;1.30;;;;;;;23.60;32.05;100203.56;4487500;32;33883;-63